Time;durP1;ratioP1;P1;durP2;ratioP2;P2;SDS_P1;SDS_P2;PMS_P1;PMS_P2;Temp;Humidity;BMP_temperature;BMP_pressure;BME280_temperature;BME280_humidity;BME280_pressure;Samples;Min_cycle;Max_cycle;Signal;HPM_P1;HPM_P2
2023/05/07 00:01:21;;;;;;;3.58;2.40;;;;;;;8.90;52.93;100670.65;1799765;79;21256;-79
2023/05/07 00:04:28;;;;;;;4.12;2.37;;;;;;;9.09;51.82;100671.84;1801737;79;21244;-79
2023/05/07 00:07:33;;;;;;;8.20;2.05;;;;;;;9.00;51.83;100665.11;1802707;79;21153;-79
2023/05/07 00:10:40;;;;;;;4.20;2.00;;;;;;;9.03;51.91;100672.95;1801882;79;21209;-78
2023/05/07 00:13:47;;;;;;;2.35;2.02;;;;;;;8.93;51.70;100668.44;1802648;79;21181;-79
2023/05/07 00:16:52;;;;;;;2.95;1.82;;;;;;;8.96;51.66;100677.69;1802571;79;21221;-79
2023/05/07 00:19:59;;;;;;;8.53;2.30;;;;;;;8.96;51.27;100681.78;1802544;79;21213;-78
2023/05/07 00:23:05;;;;;;;8.55;1.90;;;;;;;8.84;51.44;100672.11;1735289;82;21636;-79
2023/05/07 00:26:11;;;;;;;2.10;1.57;;;;;;;8.89;51.21;100680.70;1802021;79;21257;-79
2023/05/07 00:29:16;;;;;;;2.05;1.80;;;;;;;8.86;50.51;100676.92;1802704;79;21177;-79
2023/05/07 00:32:22;;;;;;;3.27;2.20;;;;;;;8.95;50.63;100660.97;1733935;82;21182;-79
2023/05/07 00:35:29;;;;;;;2.87;1.92;;;;;;;8.98;50.50;100672.58;1802449;79;21161;-79
2023/05/07 00:38:35;;;;;;;2.52;1.60;;;;;;;8.90;50.28;100679.69;1802631;79;21173;-79
2023/05/07 00:41:40;;;;;;;5.10;1.87;;;;;;;8.96;50.11;100691.84;1731866;82;21209;-79
2023/05/07 00:44:46;;;;;;;6.85;1.75;;;;;;;9.09;49.43;100685.48;1802676;79;21173;-79
2023/05/07 00:47:51;;;;;;;4.95;2.15;;;;;;;9.02;49.73;100682.16;1734203;82;21161;-79
2023/05/07 00:50:57;;;;;;;4.03;2.15;;;;;;;9.12;49.52;100672.02;1802119;79;21798;-78
2023/05/07 00:54:04;;;;;;;5.22;1.60;;;;;;;8.96;49.53;100692.70;1802614;79;21185;-79
2023/05/07 00:57:11;;;;;;;3.75;1.90;;;;;;;8.95;49.63;100682.80;1733501;82;21211;-79
2023/05/07 01:00:17;;;;;;;2.27;1.80;;;;;;;9.42;48.69;100671.58;1801797;79;21201;-79
2023/05/07 01:03:23;;;;;;;7.72;2.10;;;;;;;9.17;49.20;100673.75;1734748;82;21205;-79
2023/05/07 01:06:30;;;;;;;4.62;2.00;;;;;;;9.02;49.16;100696.66;1802714;79;21174;-79
2023/05/07 01:09:38;;;;;;;3.15;1.90;;;;;;;9.11;48.93;100662.12;1801222;79;21197;-79
2023/05/07 01:12:44;;;;;;;5.47;1.92;;;;;;;8.73;49.73;100672.36;1801450;79;21192;-79
2023/05/07 01:15:50;;;;;;;5.35;2.08;;;;;;;8.90;49.63;100679.69;1802746;79;21181;-79
2023/05/07 01:18:55;;;;;;;5.05;2.35;;;;;;;8.91;49.52;100656.84;1801086;79;21189;-79
2023/05/07 01:22:02;;;;;;;4.15;2.00;;;;;;;8.94;49.81;100672.91;1801594;79;21378;-79
2023/05/07 01:25:02;;;;;;;5.87;2.20;;;;;;;9.12;49.31;100667.41;1802527;79;21181;-79
2023/05/07 01:27:56;;;;;;;3.40;1.90;;;;;;;9.10;49.16;100676.78;1733134;82;21257;-79
2023/05/07 01:31:06;;;;;;;5.67;1.90;;;;;;;9.12;49.27;100664.68;1802567;79;21181;-79
2023/05/07 01:34:12;;;;;;;2.40;1.85;;;;;;;9.23;49.25;100668.20;1732844;82;21201;-79
2023/05/07 01:37:16;;;;;;;4.83;2.15;;;;;;;9.12;49.53;100667.41;1802681;79;21181;-79
2023/05/07 01:40:22;;;;;;;3.90;2.30;;;;;;;9.11;49.59;100673.03;1802651;79;21182;-79
2023/05/07 01:43:28;;;;;;;8.03;2.45;;;;;;;7.63;52.30;100668.30;1804285;79;21243;-79
2023/05/07 01:46:34;;;;;;;4.55;2.12;;;;;;;6.97;54.82;100669.66;1742137;82;21173;-79
2023/05/07 01:49:40;;;;;;;3.33;2.25;;;;;;;7.52;54.59;100661.15;1742688;82;21220;-79
2023/05/07 01:52:46;;;;;;;3.90;2.05;;;;;;;7.91;53.06;100665.95;1741057;82;21244;-79
2023/05/07 01:55:52;;;;;;;4.50;2.45;;;;;;;8.59;51.93;100659.27;1742006;82;21764;-79
2023/05/07 01:58:57;;;;;;;5.37;3.00;;;;;;;8.53;51.93;100672.16;1740539;82;21224;-79
2023/05/07 02:02:04;;;;;;;5.17;1.95;;;;;;;8.27;52.31;100661.95;1741420;82;21768;-79
2023/05/07 02:05:09;;;;;;;4.00;2.15;;;;;;;7.88;52.34;100666.75;1740709;82;21193;-79
2023/05/07 02:08:16;;;;;;;6.12;2.22;;;;;;;7.47;54.36;100670.77;1739795;82;21493;-80
2023/05/07 02:11:21;;;;;;;3.87;2.10;;;;;;;7.24;55.65;100679.27;1742049;82;21187;-79
2023/05/07 02:14:27;;;;;;;3.47;2.02;;;;;;;6.90;56.34;100683.81;1740735;82;21786;-80
2023/05/07 02:17:26;;;;;;;3.95;2.20;;;;;;;6.97;57.06;100687.34;1742186;82;21525;-80
2023/05/07 02:20:32;;;;;;;6.35;2.95;;;;;;;6.97;56.88;100692.27;1742024;82;21192;-80
2023/05/07 02:23:39;;;;;;;3.17;2.50;;;;;;;6.98;56.96;100683.61;1742104;82;21197;-80
2023/05/07 02:26:44;;;;;;;7.75;2.58;;;;;;;7.04;57.26;100681.16;1742047;82;21248;-79
2023/05/07 02:29:51;;;;;;;5.20;2.20;;;;;;;7.20;56.73;100683.78;1740680;82;21220;-79
2023/05/07 02:32:57;;;;;;;3.92;2.20;;;;;;;7.47;56.34;100685.73;1741086;82;21188;-80
2023/05/07 02:36:03;;;;;;;2.83;2.15;;;;;;;7.43;56.54;100696.94;1741926;82;21743;-79
2023/05/07 02:39:10;;;;;;;5.78;2.55;;;;;;;7.60;55.80;100684.41;1742109;82;21228;-79
2023/05/07 02:42:17;;;;;;;5.47;2.35;;;;;;;7.86;55.28;100681.89;1741725;82;21268;-80
2023/05/07 02:45:24;;;;;;;3.85;2.55;;;;;;;8.00;54.97;100701.45;1734035;82;21272;-80
2023/05/07 02:48:30;;;;;;;3.35;2.05;;;;;;;8.46;53.55;100690.98;1802675;79;21220;-80
2023/05/07 02:51:35;;;;;;;5.90;2.47;;;;;;;7.93;54.12;100678.05;1801204;79;21180;-80
2023/05/07 02:54:43;;;;;;;4.28;2.47;;;;;;;7.75;54.78;100689.38;1732887;82;21201;-79
2023/05/07 02:57:48;;;;;;;5.40;2.05;;;;;;;8.00;54.55;100691.92;1802590;79;21173;-79
2023/05/07 03:00:57;;;;;;;2.72;2.08;;;;;;;8.59;52.74;100688.75;1733114;82;21236;-80
2023/05/07 03:04:04;;;;;;;10.90;2.25;;;;;;;8.95;51.79;100691.50;1802062;79;21779;-78
2023/05/07 03:07:11;;;;;;;4.12;2.10;;;;;;;9.14;51.16;100692.69;1716031;82;21772;-78
2023/05/07 03:10:18;;;;;;;9.70;2.30;;;;;;;9.36;50.72;100696.80;1775715;81;21736;-79
2023/05/07 03:13:25;;;;;;;3.80;1.80;;;;;;;8.88;51.36;100702.16;1774858;81;21209;-79
2023/05/07 03:16:31;;;;;;;5.20;2.02;;;;;;;9.13;51.26;100707.87;1711538;84;21189;-79
2023/05/07 03:19:37;;;;;;;4.72;2.30;;;;;;;9.03;51.44;100698.88;1711725;84;22153;-79
2023/05/07 03:22:43;;;;;;;5.72;2.10;;;;;;;9.03;51.33;100703.83;1711667;84;21224;-79
2023/05/07 03:25:47;;;;;;;3.67;2.22;;;;;;;9.21;51.14;100709.28;1712358;84;21208;-79
2023/05/07 03:28:55;;;;;;;4.55;1.98;;;;;;;9.43;50.60;100704.68;1711524;84;21244;-79
2023/05/07 03:32:01;;;;;;;2.52;1.98;;;;;;;9.67;49.97;100704.50;1711960;84;21185;-79
2023/05/07 03:35:07;;;;;;;5.97;1.92;;;;;;;9.84;49.43;100710.42;1711885;84;21196;-79
2023/05/07 03:38:13;;;;;;;2.90;1.85;;;;;;;9.98;48.98;100709.82;1703585;84;21253;-78
2023/05/07 03:41:20;;;;;;;9.65;2.45;;;;;;;10.15;49.03;100718.09;1771110;81;21165;-78
2023/05/07 03:44:26;;;;;;;3.85;2.42;;;;;;;10.21;48.18;100705.16;1770117;80;21270;-79
2023/05/07 03:47:32;;;;;;;5.67;2.50;;;;;;;10.21;48.23;100718.31;1744463;82;21188;-78
2023/05/07 03:50:41;;;;;;;3.77;1.98;;;;;;;10.13;47.76;100713.31;1744223;82;21189;-78
2023/05/07 03:53:46;;;;;;;4.05;1.90;;;;;;;10.38;48.19;100711.55;1743502;82;21168;-77
2023/05/07 03:56:53;;;;;;;4.35;1.80;;;;;;;10.41;47.78;100714.83;1744328;82;21263;-78
2023/05/07 04:00:00;;;;;;;7.05;1.80;;;;;;;10.37;47.35;100715.31;1743524;82;21208;-79
2023/05/07 04:03:10;;;;;;;7.67;2.27;;;;;;;10.38;47.70;100718.39;1743890;82;21248;-79
2023/05/07 04:06:10;;;;;;;5.95;2.20;;;;;;;9.32;49.42;100719.97;1744352;82;21251;-78
2023/05/07 04:09:15;;;;;;;5.42;2.75;;;;;;;9.66;49.16;100713.72;1744066;82;21224;-78
2023/05/07 04:12:22;;;;;;;4.22;2.35;;;;;;;9.66;49.18;100717.82;1744208;82;21731;-79
2023/05/07 04:15:29;;;;;;;3.80;1.92;;;;;;;9.97;48.00;100724.52;1743296;82;21208;-78
2023/05/07 04:18:35;;;;;;;4.90;2.50;;;;;;;10.17;48.23;100707.86;1744219;82;21196;-79
2023/05/07 04:21:42;;;;;;;4.42;2.20;;;;;;;10.55;47.08;100719.31;1744924;82;21209;-79
2023/05/07 04:24:48;;;;;;;6.10;1.98;;;;;;;10.27;47.68;100725.02;1743136;82;21225;-78
2023/05/07 04:27:55;;;;;;;5.37;1.92;;;;;;;10.46;46.78;100717.91;1744296;82;21220;-79
2023/05/07 04:31:02;;;;;;;5.15;2.33;;;;;;;10.77;46.84;100718.66;1743107;82;21256;-78
2023/05/07 04:34:08;;;;;;;5.53;2.17;;;;;;;11.17;45.86;100726.61;1743941;82;21184;-79
2023/05/07 04:37:14;;;;;;;4.70;2.30;;;;;;;10.14;46.62;100724.58;1744204;82;21185;-79
2023/05/07 04:40:20;;;;;;;5.17;2.00;;;;;;;11.10;45.20;100724.20;1742736;82;21256;-79
2023/05/07 04:43:26;;;;;;;7.65;2.25;;;;;;;11.29;44.08;100718.90;1742800;82;21185;-79
2023/05/07 04:46:34;;;;;;;6.97;2.20;;;;;;;11.23;44.27;100734.98;1760087;80;21322;-79
2023/05/07 04:49:39;;;;;;;4.22;2.10;;;;;;;11.21;44.39;100717.89;1784856;80;21180;-78
2023/05/07 04:52:46;;;;;;;4.90;2.37;;;;;;;11.60;43.61;100721.80;1784736;80;21239;-79
2023/05/07 04:55:53;;;;;;;5.97;2.33;;;;;;;11.54;44.38;100717.88;1747530;82;21224;-78
2023/05/07 04:59:00;;;;;;;4.83;2.10;;;;;;;10.86;45.62;100715.44;1717878;83;21165;-79
2023/05/07 05:02:07;;;;;;;15.70;2.62;;;;;;;11.33;44.56;100722.50;1747486;82;21173;-79
2023/05/07 05:05:13;;;;;;;4.92;2.30;;;;;;;11.59;44.19;100720.10;1746628;82;21256;-79
2023/05/07 05:08:18;;;;;;;9.78;2.15;;;;;;;11.50;44.03;100711.88;1747580;82;21189;-78
2023/05/07 05:11:25;;;;;;;7.17;2.33;;;;;;;11.71;43.93;100720.92;1747570;82;21189;-79
2023/05/07 05:14:31;;;;;;;7.75;2.47;;;;;;;11.78;43.37;100723.84;1747231;82;21173;-79
2023/05/07 05:17:36;;;;;;;7.50;2.20;;;;;;;12.12;42.91;100726.87;1747556;82;21217;-79
2023/05/07 05:20:41;;;;;;;7.10;2.33;;;;;;;12.33;42.30;100707.95;1747476;82;21184;-79
2023/05/07 05:23:48;;;;;;;6.33;2.08;;;;;;;12.00;42.96;100708.06;1747577;82;21189;-79
2023/05/07 05:26:54;;;;;;;2.87;2.37;;;;;;;12.19;43.05;100709.55;1747650;82;21257;-78
2023/05/07 05:30:00;;;;;;;6.87;2.05;;;;;;;12.58;43.26;100731.14;1747648;82;21157;-79
2023/05/07 05:33:09;;;;;;;3.35;2.05;;;;;;;12.78;41.93;100706.32;1747688;82;21188;-79
2023/05/07 05:36:17;;;;;;;5.58;2.30;;;;;;;12.83;41.28;100728.59;1746430;82;21724;-79
2023/05/07 05:39:25;;;;;;;4.87;2.10;;;;;;;12.63;41.83;100728.72;1747887;82;21700;-78
2023/05/07 05:42:33;;;;;;;5.28;2.05;;;;;;;12.62;41.77;100722.89;1747692;82;21181;-79
2023/05/07 05:45:40;;;;;;;6.85;2.90;;;;;;;12.73;42.24;100712.35;1746772;82;21221;-79
2023/05/07 05:48:47;;;;;;;5.62;2.10;;;;;;;12.99;41.87;100712.55;1734666;82;21225;-79
2023/05/07 05:51:53;;;;;;;3.80;2.20;;;;;;;13.10;41.64;100714.01;1770912;81;21193;-79
2023/05/07 05:54:58;;;;;;;4.42;2.25;;;;;;;12.92;41.78;100712.41;1749010;81;21189;-79
2023/05/07 05:58:02;;;;;;;7.42;2.05;;;;;;;13.26;40.85;100723.52;1771201;81;21240;-79
2023/05/07 06:01:11;;;;;;;4.40;1.95;;;;;;;13.48;40.54;100722.65;1752905;81;21240;-79
2023/05/07 06:04:17;;;;;;;4.70;2.15;;;;;;;13.31;41.16;100722.44;1734187;82;21169;-79
2023/05/07 06:07:22;;;;;;;7.22;2.37;;;;;;;13.39;41.13;100719.63;1704840;84;21735;-79
2023/05/07 06:10:29;;;;;;;3.50;1.72;;;;;;;13.73;41.34;100718.29;1771033;81;21783;-78
2023/05/07 06:13:35;;;;;;;6.00;2.40;;;;;;;13.35;41.14;100719.66;1771057;81;21830;-79
2023/05/07 06:16:41;;;;;;;9.58;2.98;;;;;;;13.75;41.00;100725.84;1769904;81;21200;-79
2023/05/07 06:19:48;;;;;;;5.72;2.37;;;;;;;13.85;41.03;100720.92;1770920;81;21201;-79
2023/05/07 06:22:53;;;;;;;8.93;2.35;;;;;;;14.22;40.08;100731.01;1770950;81;21185;-79
2023/05/07 06:25:59;;;;;;;6.42;2.52;;;;;;;14.33;40.04;100731.89;1770351;81;21232;-79
2023/05/07 06:29:07;;;;;;;4.62;1.90;;;;;;;14.21;40.60;100726.55;1770880;81;21334;-79
2023/05/07 06:32:20;;;;;;;12.68;3.20;;;;;;;12.67;43.24;100728.17;1733519;82;21209;-79
2023/05/07 06:35:26;;;;;;;4.58;2.00;;;;;;;12.96;42.72;100722.52;1705126;84;21256;-79
2023/05/07 06:38:32;;;;;;;6.50;2.02;;;;;;;13.45;42.23;100719.41;1769918;80;21165;-79
2023/05/07 06:41:39;;;;;;;7.00;2.00;;;;;;;13.79;41.63;100721.16;1769411;81;21764;-79
2023/05/07 06:44:47;;;;;;;4.53;2.30;;;;;;;13.74;41.27;100726.38;1769445;81;21217;-79
2023/05/07 06:47:54;;;;;;;16.93;4.75;;;;;;;13.98;40.97;100734.04;1768746;80;21283;-79
2023/05/07 06:51:01;;;;;;;3.70;1.75;;;;;;;14.77;40.26;100726.90;1769713;81;21224;-79
2023/05/07 06:54:07;;;;;;;6.75;2.15;;;;;;;15.24;39.28;100732.89;1769713;81;21183;-79
2023/05/07 06:57:13;;;;;;;3.58;1.77;;;;;;;15.28;38.59;100737.81;1768175;81;21757;-79
2023/05/07 07:00:20;;;;;;;4.70;1.60;;;;;;;15.62;38.92;100715.56;1769073;81;21237;-79
2023/05/07 07:03:25;;;;;;;3.72;1.52;;;;;;;15.39;39.15;100721.30;1768625;81;21237;-79
2023/05/07 07:06:32;;;;;;;2.35;1.62;;;;;;;15.69;38.32;100723.91;1768771;81;21226;-79
2023/05/07 07:09:36;;;;;;;9.20;1.90;;;;;;;16.12;37.74;100715.52;1769281;81;21167;-79
2023/05/07 07:12:43;;;;;;;6.53;1.77;;;;;;;13.19;43.04;100723.38;1768039;81;21179;-79
2023/05/07 07:15:49;;;;;;;3.98;1.67;;;;;;;12.92;44.04;100713.78;1768056;81;21234;-79
2023/05/07 07:18:49;;;;;;;17.75;2.12;;;;;;;12.77;43.01;100704.62;1769135;81;21812;-79
2023/05/07 07:21:55;;;;;;;7.15;2.05;;;;;;;12.77;44.20;100735.66;1769652;81;21234;-79
2023/05/07 07:25:02;;;;;;;6.22;1.70;;;;;;;12.89;43.97;100704.55;1769652;81;21209;-79
2023/05/07 07:28:10;;;;;;;9.58;2.30;;;;;;;13.19;43.24;100714.28;1769431;81;21189;-80
2023/05/07 07:31:15;;;;;;;6.80;2.30;;;;;;;13.48;42.50;100711.66;1769315;81;21192;-79
2023/05/07 07:34:21;;;;;;;4.25;2.55;;;;;;;14.01;41.24;100712.48;1768278;81;21220;-80
2023/05/07 07:37:28;;;;;;;2.20;1.42;;;;;;;14.19;41.30;100710.73;1768781;81;21181;-80
2023/05/07 07:40:37;;;;;;;4.00;1.77;;;;;;;14.23;41.11;100718.09;1768359;81;21295;-80
2023/05/07 07:43:42;;;;;;;3.20;2.22;;;;;;;14.35;41.47;100694.58;1768392;81;21232;-80
2023/05/07 07:46:47;;;;;;;10.95;2.08;;;;;;;14.43;40.04;100702.70;1768614;81;21783;-80
2023/05/07 07:49:53;;;;;;;3.77;1.75;;;;;;;14.38;41.33;100694.17;1775019;80;21220;-79
2023/05/07 07:53:00;;;;;;;7.15;1.70;;;;;;;14.79;39.68;100688.98;1785588;80;22160;-79
2023/05/07 07:56:05;;;;;;;4.80;1.95;;;;;;;14.82;39.56;100686.39;1712552;83;21193;-79
2023/05/07 07:59:10;;;;;;;4.92;2.08;;;;;;;14.85;40.32;100687.87;1743348;82;21275;-79
2023/05/07 08:02:17;;;;;;;10.82;1.75;;;;;;;14.97;39.22;100680.30;1713870;83;21197;-80
2023/05/07 08:05:24;;;;;;;6.35;1.50;;;;;;;14.86;40.07;100679.41;1743308;82;21181;-80
2023/05/07 08:08:31;;;;;;;4.60;1.60;;;;;;;14.96;40.54;100704.77;1712620;83;21221;-80
2023/05/07 08:11:37;;;;;;;3.60;1.92;;;;;;;14.89;38.87;100677.66;1743374;82;21236;-80
2023/05/07 08:14:42;;;;;;;2.22;1.25;;;;;;;14.72;39.62;100697.69;1714159;83;21177;-80
2023/05/07 08:17:48;;;;;;;8.55;2.00;;;;;;;14.98;40.23;100673.73;1743007;82;21208;-79
2023/05/07 08:20:53;;;;;;;4.40;1.72;;;;;;;15.22;38.53;100679.89;1714120;83;21245;-79
2023/05/07 08:23:59;;;;;;;3.90;1.80;;;;;;;15.36;39.97;100666.55;1736616;82;21197;-79
2023/05/07 08:27:04;;;;;;;6.45;1.65;;;;;;;15.47;39.35;100670.13;1733678;82;21910;-80
2023/05/07 08:30:12;;;;;;;7.22;2.05;;;;;;;15.34;38.69;100673.66;1732487;82;21241;-79
2023/05/07 08:33:17;;;;;;;8.63;1.72;;;;;;;15.26;38.29;100686.72;1732275;82;21197;-80
2023/05/07 08:36:25;;;;;;;8.10;2.33;;;;;;;15.38;38.78;100686.48;1733813;82;21194;-80
2023/05/07 08:39:31;;;;;;;3.50;2.20;;;;;;;15.48;38.83;100674.63;1742847;82;21173;-80
2023/05/07 08:42:40;;;;;;;5.00;1.72;;;;;;;15.53;38.69;100683.14;1715085;83;21252;-79
2023/05/07 08:45:47;;;;;;;4.72;1.92;;;;;;;15.54;38.34;100683.46;1744371;82;21193;-80
2023/05/07 08:48:58;;;;;;;3.47;1.60;;;;;;;15.56;37.60;100681.88;1714084;83;21253;-80
2023/05/07 08:52:02;;;;;;;8.28;1.80;;;;;;;15.66;39.50;100681.55;1734353;82;21216;-80
2023/05/07 08:55:07;;;;;;;8.83;2.08;;;;;;;15.71;38.45;100692.30;1712596;84;21164;-80
2023/05/07 08:58:13;;;;;;;3.27;1.80;;;;;;;15.73;37.65;100699.02;1725476;83;21202;-80
2023/05/07 09:01:24;;;;;;;3.42;1.95;;;;;;;15.64;37.85;100668.51;1685826;84;21196;-80
2023/05/07 09:04:29;;;;;;;14.98;2.20;;;;;;;15.66;37.39;100702.23;1725523;83;21221;-80
2023/05/07 09:07:35;;;;;;;3.20;1.98;;;;;;;15.73;37.71;100690.75;1712015;84;21275;-79
2023/05/07 09:10:41;;;;;;;5.80;1.80;;;;;;;15.62;37.90;100673.33;1725850;83;21177;-79
2023/05/07 09:13:47;;;;;;;4.97;1.60;;;;;;;15.63;37.65;100673.67;1710344;84;21134;-80
2023/05/07 09:16:54;;;;;;;12.63;2.55;;;;;;;15.68;37.68;100684.45;1738859;82;21160;-79
2023/05/07 09:20:00;;;;;;;3.83;1.80;;;;;;;15.75;37.75;100669.32;1712073;83;21237;-80
2023/05/07 09:23:08;;;;;;;2.72;1.47;;;;;;;15.94;36.37;100671.36;1740985;82;21192;-80
2023/05/07 09:26:13;;;;;;;3.90;1.57;;;;;;;16.02;36.37;100677.25;1712438;83;21756;-80
2023/05/07 09:29:19;;;;;;;4.30;1.75;;;;;;;15.98;36.50;100676.80;1733916;82;21209;-80
2023/05/07 09:32:24;;;;;;;5.90;2.00;;;;;;;15.97;36.09;100673.72;1711452;84;21307;-80
2023/05/07 09:35:29;;;;;;;3.58;1.62;;;;;;;16.03;35.28;100668.76;1724225;83;21229;-80
2023/05/07 09:38:36;;;;;;;2.75;1.77;;;;;;;16.15;35.20;100676.48;1711061;84;21180;-79
2023/05/07 09:41:45;;;;;;;3.33;1.60;;;;;;;16.17;35.29;100668.84;1704929;83;21182;-79
2023/05/07 09:44:52;;;;;;;5.28;1.57;;;;;;;16.48;35.78;100680.78;1689903;84;21244;-80
2023/05/07 09:48:03;;;;;;;11.90;1.75;;;;;;;15.40;35.25;100674.76;1710121;84;21822;-80
2023/05/07 09:51:11;;;;;;;5.78;1.82;;;;;;;14.74;37.15;100651.55;1709259;83;21244;-80
2023/05/07 09:54:16;;;;;;;5.78;1.60;;;;;;;15.63;35.68;100653.00;1704874;84;21584;-80
2023/05/07 09:57:22;;;;;;;6.30;1.60;;;;;;;15.88;34.89;100658.38;1721473;83;21202;-80
2023/05/07 10:00:24;;;;;;;7.45;1.80;;;;;;;15.83;35.23;100673.31;1720666;83;21245;-80
2023/05/07 10:03:17;;;;;;;3.37;1.70;;;;;;;15.93;36.10;100654.48;1721502;83;21201;-79
2023/05/07 10:06:05;;;;;;;4.22;1.98;;;;;;;15.99;34.24;100654.20;1720800;83;21261;-79
2023/05/07 10:09:00;;;;;;;2.70;1.50;;;;;;;16.06;35.51;100651.81;1721025;83;21835;-79
2023/05/07 10:11:46;;;;;;;3.47;1.42;;;;;;;16.02;34.90;100651.04;1722213;83;21249;-79
2023/05/07 10:14:38;;;;;;;2.65;1.60;;;;;;;16.00;34.64;100655.39;1721433;83;21202;-79
2023/05/07 10:17:46;;;;;;;2.37;1.32;;;;;;;16.01;34.25;100641.91;1721434;83;21236;-79
2023/05/07 10:20:52;;;;;;;3.70;1.50;;;;;;;16.04;34.77;100659.45;1721088;83;21828;-79
2023/05/07 10:24:00;;;;;;;10.63;1.47;;;;;;;16.07;34.82;100652.66;1721596;83;21512;-79
2023/05/07 10:27:06;;;;;;;13.83;2.08;;;;;;;15.84;34.08;100661.22;1717510;83;21222;-79
2023/05/07 10:30:43;;;;;;;8.80;1.60;;;;;;;16.17;34.45;100648.14;1720409;83;21236;-79
2023/05/07 10:33:52;;;;;;;8.63;1.60;;;;;;;16.40;34.73;100639.55;1721400;83;21198;-79
2023/05/07 10:36:58;;;;;;;5.25;1.17;;;;;;;16.63;33.85;100643.34;1720427;83;21221;-79
2023/05/07 10:40:14;;;;;;;4.55;1.30;;;;;;;16.63;33.18;100637.82;1699264;83;21205;-80
2023/05/07 10:43:19;;;;;;;4.55;1.35;;;;;;;16.60;33.19;100638.54;1720186;83;21250;-80
2023/05/07 10:46:26;;;;;;;4.67;1.30;;;;;;;16.64;32.45;100627.09;1721634;83;21198;-80
2023/05/07 10:49:36;;;;;;;6.17;1.92;;;;;;;16.68;32.77;100647.18;1721148;83;21222;-80
2023/05/07 10:52:48;;;;;;;5.12;2.10;;;;;;;16.70;32.34;100626.24;1719354;83;21621;-80
2023/05/07 10:56:20;;;;;;;11.90;1.62;;;;;;;16.72;33.78;100614.51;1721347;83;21206;-80
2023/05/07 10:59:42;;;;;;;4.40;1.42;;;;;;;16.80;32.35;100628.98;1721055;83;21242;-79
2023/05/07 11:03:14;;;;;;;3.30;1.60;;;;;;;16.91;32.45;100649.61;1721374;83;21254;-79
2023/05/07 11:06:25;;;;;;;4.53;1.32;;;;;;;16.87;31.75;100626.22;1721065;83;21301;-79
2023/05/07 11:09:36;;;;;;;2.75;1.25;;;;;;;16.89;31.54;100624.61;1721174;83;21226;-78
2023/05/07 11:12:51;;;;;;;3.83;1.30;;;;;;;16.92;32.58;100612.63;1699259;83;21178;-78
2023/05/07 11:16:05;;;;;;;5.22;1.52;;;;;;;16.88;33.42;100611.34;1721443;83;21878;-79
2023/05/07 11:19:11;;;;;;;6.30;1.75;;;;;;;16.95;32.46;100612.75;1721420;83;21202;-78
2023/05/07 11:22:41;;;;;;;3.30;1.62;;;;;;;17.09;31.41;100600.11;1720714;83;21221;-78
2023/05/07 11:25:46;;;;;;;;;;;;;;;17.08;30.88;100598.41;1724015;83;21202;-78
2023/05/07 11:28:53;;;;;;;2.65;1.35;;;;;;;17.08;31.57;100587.36;1720208;83;20215;-78
2023/05/07 11:32:00;;;;;;;3.00;1.30;;;;;;;17.13;31.26;100619.04;1721524;83;21201;-79
2023/05/07 11:35:09;;;;;;;7.67;1.55;;;;;;;17.16;30.05;100602.01;1721493;83;21210;-78
2023/05/07 11:38:15;;;;;;;7.42;1.47;;;;;;;17.15;30.56;100594.79;1720216;83;21617;-78
2023/05/07 11:41:20;;;;;;;3.35;1.25;;;;;;;17.10;30.71;100607.33;1720400;83;21186;-79
2023/05/07 11:44:26;;;;;;;4.85;1.22;;;;;;;17.05;30.94;100569.80;1721529;83;21812;-79
2023/05/07 11:47:32;;;;;;;5.17;1.42;;;;;;;17.01;30.06;100585.11;1721418;83;21183;-80
2023/05/07 11:50:39;;;;;;;9.38;1.32;;;;;;;16.99;29.30;100569.28;1720095;83;21242;-79
2023/05/07 11:53:49;;;;;;;7.08;1.17;;;;;;;17.11;30.84;100588.30;1718600;83;21222;-79
2023/05/07 11:56:54;;;;;;;;;;;;;;;17.18;29.95;100571.73;1716172;83;21203;-79
2023/05/07 12:00:06;;;;;;;9.40;1.12;;;;;;;17.15;29.37;100572.14;1712926;83;20212;-79
2023/05/07 12:03:12;;;;;;;1.85;1.05;;;;;;;17.30;30.05;100549.80;1713549;83;21210;-79
2023/05/07 12:06:18;;;;;;;2.22;1.30;;;;;;;17.39;30.79;100549.90;1713638;83;21186;-80
2023/05/07 12:09:24;;;;;;;5.50;1.35;;;;;;;17.46;30.27;100545.22;1713485;83;21800;-79
2023/05/07 12:12:30;;;;;;;2.92;1.00;;;;;;;17.56;30.21;100560.83;1713502;83;21226;-80
2023/05/07 12:15:37;;;;;;;12.37;1.42;;;;;;;17.59;29.15;100562.30;1713441;83;21178;-79
2023/05/07 12:18:43;;;;;;;6.33;1.25;;;;;;;17.72;28.50;100546.20;1713416;83;21207;-80
2023/05/07 12:21:51;;;;;;;4.00;0.98;;;;;;;17.70;28.91;100546.97;1712672;83;21198;-79
2023/05/07 12:24:59;;;;;;;3.67;1.10;;;;;;;17.77;28.71;100529.83;1713480;83;21210;-79
2023/05/07 12:28:07;;;;;;;2.20;1.05;;;;;;;17.84;29.73;100540.36;1712052;83;21217;-80
2023/05/07 12:31:12;;;;;;;3.05;1.47;;;;;;;18.11;27.00;100535.54;1696034;83;21824;-80
2023/05/07 12:34:19;;;;;;;3.17;1.02;;;;;;;18.21;26.51;100548.91;1713649;83;21194;-80
2023/05/07 12:37:24;;;;;;;5.75;1.12;;;;;;;18.20;27.78;100536.14;1713584;83;21199;-80
2023/05/07 12:40:31;;;;;;;4.90;0.95;;;;;;;18.22;27.95;100532.63;1754547;81;21220;-79
2023/05/07 12:43:37;;;;;;;3.62;1.42;;;;;;;18.30;27.14;100526.31;1771105;81;21161;-79
2023/05/07 12:46:46;;;;;;;5.97;1.10;;;;;;;18.17;26.86;100533.84;1774121;79;21232;-80
2023/05/07 12:49:51;;;;;;;1.60;0.80;;;;;;;18.43;27.55;100533.67;1774289;81;21180;-80
2023/05/07 12:52:57;;;;;;;3.85;1.10;;;;;;;18.58;27.12;100528.69;1775346;81;21220;-80
2023/05/07 12:56:05;;;;;;;5.40;1.10;;;;;;;18.76;27.39;100551.48;1766096;80;21225;-80
2023/05/07 12:59:11;;;;;;;6.30;1.62;;;;;;;19.04;26.26;100524.72;1766174;81;21280;-80
2023/05/07 13:02:18;;;;;;;2.65;1.20;;;;;;;15.99;30.33;100529.52;1708573;84;21177;-79
2023/05/07 13:05:24;;;;;;;3.10;1.40;;;;;;;16.08;29.56;100525.52;1710746;84;21221;-79
2023/05/07 13:08:45;;;;;;;3.52;1.15;;;;;;;15.86;29.48;100522.59;1711226;83;21216;-80
2023/05/07 13:11:50;;;;;;;3.42;1.17;;;;;;;15.87;29.46;100529.80;1709547;84;21276;-80
2023/05/07 13:14:57;;;;;;;3.35;1.27;;;;;;;15.70;29.87;100520.17;1733671;82;21174;-80
2023/05/07 13:18:03;;;;;;;3.95;1.20;;;;;;;15.64;30.72;100537.54;1719192;83;21263;-81
2023/05/07 13:21:10;;;;;;;4.78;1.37;;;;;;;15.66;29.73;100542.30;1720563;83;21234;-79
2023/05/07 13:24:15;;;;;;;4.10;1.22;;;;;;;16.23;28.46;100542.44;1717942;83;21306;-80
2023/05/07 13:27:21;;;;;;;3.40;1.27;;;;;;;15.97;28.83;100519.23;1720194;83;21196;-79
2023/05/07 13:30:27;;;;;;;2.95;1.02;;;;;;;15.94;28.47;100522.39;1718911;83;21211;-80
2023/05/07 13:33:33;;;;;;;4.03;1.30;;;;;;;15.70;28.83;100546.36;1715948;83;21202;-80
2023/05/07 13:36:41;;;;;;;6.53;1.12;;;;;;;16.59;27.98;100521.39;1716014;83;21207;-80
2023/05/07 13:39:47;;;;;;;5.22;1.10;;;;;;;16.89;27.86;100521.89;1714985;83;21277;-79
2023/05/07 13:42:52;;;;;;;3.47;1.60;;;;;;;16.98;27.13;100530.26;1715167;83;21186;-79
2023/05/07 13:45:58;;;;;;;4.50;1.17;;;;;;;17.01;27.02;100553.33;1716084;83;21198;-78
2023/05/07 13:49:04;;;;;;;3.33;0.95;;;;;;;16.81;27.23;100538.13;1718825;83;21301;-79
2023/05/07 13:52:11;;;;;;;2.12;1.12;;;;;;;17.08;27.23;100535.38;1718470;83;21834;-79
2023/05/07 13:55:17;;;;;;;4.50;1.20;;;;;;;17.18;26.89;100534.95;1719476;82;21236;-79
2023/05/07 13:58:24;;;;;;;5.50;0.88;;;;;;;16.94;26.41;100537.80;1752194;82;21478;-80
2023/05/07 14:01:30;;;;;;;5.20;1.40;;;;;;;16.96;26.60;100538.45;1787173;79;21656;-80
2023/05/07 14:04:35;;;;;;;3.77;1.42;;;;;;;16.94;26.92;100543.33;1779756;80;21192;-80
2023/05/07 14:07:41;;;;;;;2.90;1.50;;;;;;;16.92;26.75;100535.26;1779806;80;21184;-80
2023/05/07 14:10:46;;;;;;;2.85;1.12;;;;;;;16.80;26.46;100542.50;1779127;80;21267;-80
2023/05/07 14:13:53;;;;;;;2.55;1.17;;;;;;;16.80;26.59;100530.92;1778881;80;21196;-79
2023/05/07 14:16:58;;;;;;;3.22;1.30;;;;;;;16.78;26.91;100541.31;1799466;79;21748;-79
2023/05/07 14:20:06;;;;;;;5.17;1.10;;;;;;;16.84;26.82;100536.84;1731048;83;21185;-80
2023/05/07 14:23:12;;;;;;;4.47;1.42;;;;;;;16.85;26.69;100534.42;1801603;79;21165;-80
2023/05/07 14:26:18;;;;;;;4.53;1.20;;;;;;;16.80;26.97;100535.06;1801606;79;21181;-79
2023/05/07 14:29:25;;;;;;;19.57;2.17;;;;;;;16.71;27.44;100534.91;1801842;79;21221;-79